CEB357 RPLK-RPLL
Flight info
| Callsign | CEB357 |
|---|---|
| Flight time | 0h 49m |
| Altitude | 32000 |
| Route | NGA2D NGA W9 AKDAP AKDAP5R |
| Aircraft | A20N/M-SDE2E3FGHIJ1RWXY/LB1 |
Departure
| Time | 2026-04-30 13:59 |
|---|---|
| Airport | Bicol International Airport (RPLK) |
Arrival
| Time | 2026-04-30 14:48 |
|---|---|
| Airport | Ninoy Aquino International Airport (RPLL) |
| Time | Latitude | Longitude | Altitude | Speed | Heading |
|---|---|---|---|---|---|
| 2026-04-30 13:44 | 13.11237 | 123.68103 | 310 ft | 0 kts | 137° |
| 2026-04-30 13:46 | 13.11241 | 123.68098 | 310 ft | 2 kts | 142° |
| 2026-04-30 13:46 | 13.11253 | 123.68089 | 310 ft | 2 kts | 135° |
| 2026-04-30 13:46 | 13.11263 | 123.68079 | 310 ft | 2 kts | 137° |
| 2026-04-30 13:47 | 13.11274 | 123.68069 | 310 ft | 2 kts | 136° |
| 2026-04-30 13:47 | 13.11285 | 123.68057 | 310 ft | 2 kts | 150° |
| 2026-04-30 13:47 | 13.11300 | 123.68055 | 309 ft | 2 kts | 190° |
| 2026-04-30 13:47 | 13.11312 | 123.68059 | 309 ft | 0 kts | 221° |
| 2026-04-30 13:48 | 13.11317 | 123.68065 | 309 ft | 1 kts | 227° |
| 2026-04-30 13:48 | 13.11318 | 123.68066 | 309 ft | 0 kts | 226° |
| 2026-04-30 13:51 | 13.11311 | 123.68059 | 309 ft | 3 kts | 223° |
| 2026-04-30 13:52 | 13.11285 | 123.68035 | 310 ft | 6 kts | 224° |
| 2026-04-30 13:52 | 13.11263 | 123.68011 | 310 ft | 4 kts | 230° |
| 2026-04-30 13:52 | 13.11242 | 123.67980 | 310 ft | 5 kts | 239° |
| 2026-04-30 13:52 | 13.11234 | 123.67960 | 311 ft | 3 kts | 260° |
| 2026-04-30 13:53 | 13.11239 | 123.67933 | 311 ft | 4 kts | 295° |
| 2026-04-30 13:53 | 13.11257 | 123.67909 | 310 ft | 0 kts | 315° |
| 2026-04-30 13:55 | 13.11267 | 123.67899 | 310 ft | 7 kts | 315° |
| 2026-04-30 13:55 | 13.11311 | 123.67835 | 309 ft | 12 kts | 268° |
| 2026-04-30 13:55 | 13.11267 | 123.67767 | 311 ft | 11 kts | 226° |
| 2026-04-30 13:55 | 13.11207 | 123.67700 | 313 ft | 16 kts | 227° |
| 2026-04-30 13:56 | 13.11106 | 123.67587 | 319 ft | 24 kts | 227° |
| 2026-04-30 13:56 | 13.10979 | 123.67448 | 327 ft | 26 kts | 227° |
| 2026-04-30 13:56 | 13.10862 | 123.67319 | 331 ft | 23 kts | 227° |
| 2026-04-30 13:56 | 13.10749 | 123.67196 | 336 ft | 25 kts | 227° |
| 2026-04-30 13:57 | 13.10642 | 123.67084 | 338 ft | 14 kts | 213° |
| 2026-04-30 13:57 | 13.10554 | 123.67051 | 339 ft | 13 kts | 196° |
| 2026-04-30 13:57 | 13.10492 | 123.67018 | 339 ft | 9 kts | 239° |
| 2026-04-30 13:57 | 13.10501 | 123.66960 | 340 ft | 4 kts | 320° |
| 2026-04-30 13:58 | 13.10535 | 123.66956 | 340 ft | 5 kts | 29° |
| 2026-04-30 13:58 | 13.11005 | 123.67479 | 325 ft | 124 kts | 48° |
| 2026-04-30 13:58 | 13.11682 | 123.68220 | 730 ft | 149 kts | 49° |
| 2026-04-30 13:59 | 13.12381 | 123.68981 | 1524 ft | 151 kts | 50° |
| 2026-04-30 13:59 | 13.13097 | 123.69748 | 2367 ft | 151 kts | 49° |
| 2026-04-30 13:59 | 13.13837 | 123.70550 | 2978 ft | 165 kts | 50° |
| 2026-04-30 13:59 | 13.14662 | 123.71472 | 3556 ft | 185 kts | 50° |
| 2026-04-30 14:00 | 13.15563 | 123.72477 | 4089 ft | 205 kts | 49° |
| 2026-04-30 14:00 | 13.17704 | 123.74847 | 5296 ft | 245 kts | 49° |
| 2026-04-30 14:00 | 13.18905 | 123.76170 | 5949 ft | 262 kts | 49° |
| 2026-04-30 14:01 | 13.20161 | 123.77554 | 6808 ft | 270 kts | 49° |
| 2026-04-30 14:01 | 13.21439 | 123.78964 | 7725 ft | 274 kts | 49° |
| 2026-04-30 14:01 | 13.22724 | 123.80383 | 8599 ft | 278 kts | 49° |
| 2026-04-30 14:01 | 13.24100 | 123.81799 | 9423 ft | 284 kts | 38° |
| 2026-04-30 14:02 | 13.25906 | 123.82671 | 10257 ft | 292 kts | 14° |
| 2026-04-30 14:02 | 13.27960 | 123.82711 | 10891 ft | 307 kts | 350° |
| 2026-04-30 14:02 | 13.29942 | 123.81754 | 11333 ft | 329 kts | 322° |
| 2026-04-30 14:02 | 13.31392 | 123.79851 | 11762 ft | 349 kts | 300° |
| 2026-04-30 14:03 | 13.32493 | 123.77580 | 12282 ft | 361 kts | 297° |
| 2026-04-30 14:03 | 13.33564 | 123.75276 | 12948 ft | 366 kts | 297° |
| 2026-04-30 14:03 | 13.34687 | 123.72913 | 13658 ft | 369 kts | 298° |
| 2026-04-30 14:03 | 13.35837 | 123.70551 | 14325 ft | 373 kts | 298° |
| 2026-04-30 14:04 | 13.37012 | 123.68166 | 14968 ft | 378 kts | 298° |
| 2026-04-30 14:04 | 13.38229 | 123.65756 | 15584 ft | 382 kts | 299° |
| 2026-04-30 14:04 | 13.39474 | 123.63346 | 16196 ft | 386 kts | 300° |
| 2026-04-30 14:04 | 13.40741 | 123.60901 | 16800 ft | 390 kts | 299° |
| 2026-04-30 14:05 | 13.42024 | 123.58424 | 17385 ft | 394 kts | 299° |
| 2026-04-30 14:05 | 13.43321 | 123.55917 | 17985 ft | 397 kts | 299° |
| 2026-04-30 14:05 | 13.44605 | 123.53426 | 18558 ft | 401 kts | 299° |
| 2026-04-30 14:05 | 13.45918 | 123.50880 | 19143 ft | 404 kts | 299° |
| 2026-04-30 14:06 | 13.47236 | 123.48322 | 19718 ft | 407 kts | 298° |
| 2026-04-30 14:06 | 13.49900 | 123.43146 | 20833 ft | 413 kts | 298° |
| 2026-04-30 14:07 | 13.52584 | 123.37929 | 21936 ft | 418 kts | 298° |
| 2026-04-30 14:07 | 13.53954 | 123.35265 | 22486 ft | 421 kts | 298° |
| 2026-04-30 14:07 | 13.55324 | 123.32591 | 23013 ft | 424 kts | 297° |
| 2026-04-30 14:08 | 13.58071 | 123.27221 | 23878 ft | 427 kts | 297° |
| 2026-04-30 14:08 | 13.59422 | 123.24486 | 23937 ft | 427 kts | 296° |
| 2026-04-30 14:08 | 13.62002 | 123.19041 | 23943 ft | 414 kts | 296° |
| 2026-04-30 14:09 | 13.63244 | 123.16421 | 23948 ft | 410 kts | 296° |
| 2026-04-30 14:09 | 13.64519 | 123.13737 | 23949 ft | 428 kts | 296° |
| 2026-04-30 14:09 | 13.67233 | 123.08036 | 23949 ft | 460 kts | 296° |
| 2026-04-30 14:10 | 13.68674 | 123.05012 | 23946 ft | 474 kts | 296° |
| 2026-04-30 14:10 | 13.70131 | 123.01955 | 23945 ft | 486 kts | 296° |
| 2026-04-30 14:10 | 13.71634 | 122.98801 | 23946 ft | 497 kts | 296° |
| 2026-04-30 14:10 | 13.73161 | 122.95598 | 23947 ft | 501 kts | 296° |
| 2026-04-30 14:11 | 13.74709 | 122.92350 | 23948 ft | 503 kts | 296° |
| 2026-04-30 14:11 | 13.76246 | 122.89127 | 23950 ft | 503 kts | 296° |
| 2026-04-30 14:11 | 13.77776 | 122.85917 | 23952 ft | 503 kts | 296° |
| 2026-04-30 14:11 | 13.79314 | 122.82690 | 23954 ft | 503 kts | 296° |
| 2026-04-30 14:12 | 13.80852 | 122.79459 | 23958 ft | 501 kts | 296° |
| 2026-04-30 14:12 | 13.82393 | 122.76215 | 23962 ft | 501 kts | 296° |
| 2026-04-30 14:12 | 13.83905 | 122.73023 | 23965 ft | 502 kts | 295° |
| 2026-04-30 14:12 | 13.84916 | 122.70887 | 23967 ft | 502 kts | 295° |
| 2026-04-30 14:13 | 13.86956 | 122.66581 | 23970 ft | 501 kts | 295° |
| 2026-04-30 14:13 | 13.88498 | 122.63329 | 23970 ft | 502 kts | 295° |
| 2026-04-30 14:13 | 13.90028 | 122.60101 | 23970 ft | 502 kts | 295° |
| 2026-04-30 14:13 | 13.91540 | 122.56909 | 23969 ft | 502 kts | 295° |
| 2026-04-30 14:14 | 13.93066 | 122.53689 | 23965 ft | 501 kts | 295° |
| 2026-04-30 14:14 | 13.94604 | 122.50441 | 23960 ft | 501 kts | 295° |
| 2026-04-30 14:14 | 13.96119 | 122.47242 | 23956 ft | 501 kts | 295° |
| 2026-04-30 14:14 | 13.97659 | 122.43990 | 23955 ft | 501 kts | 295° |
| 2026-04-30 14:15 | 13.99183 | 122.40771 | 23952 ft | 501 kts | 295° |
| 2026-04-30 14:15 | 14.00704 | 122.37556 | 23949 ft | 500 kts | 295° |
| 2026-04-30 14:15 | 14.02211 | 122.34370 | 23946 ft | 500 kts | 295° |
| 2026-04-30 14:15 | 14.03737 | 122.31127 | 23944 ft | 500 kts | 295° |
| 2026-04-30 14:16 | 14.05250 | 122.27911 | 23942 ft | 501 kts | 295° |
| 2026-04-30 14:16 | 14.06762 | 122.24699 | 23939 ft | 501 kts | 295° |
| 2026-04-30 14:16 | 14.08290 | 122.21457 | 23939 ft | 501 kts | 295° |
| 2026-04-30 14:16 | 14.09808 | 122.18237 | 23938 ft | 500 kts | 295° |
| 2026-04-30 14:17 | 14.11336 | 122.15015 | 23937 ft | 500 kts | 295° |
| 2026-04-30 14:17 | 14.12863 | 122.11816 | 23936 ft | 500 kts | 295° |
| 2026-04-30 14:17 | 14.14401 | 122.08583 | 23935 ft | 500 kts | 295° |
| 2026-04-30 14:17 | 14.15927 | 122.05362 | 23935 ft | 499 kts | 295° |
| 2026-04-30 14:18 | 14.17418 | 122.02207 | 23935 ft | 479 kts | 295° |
| 2026-04-30 14:18 | 14.18831 | 121.99210 | 23941 ft | 455 kts | 295° |
| 2026-04-30 14:18 | 14.21460 | 121.93625 | 23937 ft | 415 kts | 295° |
| 2026-04-30 14:19 | 14.23812 | 121.88353 | 23946 ft | 403 kts | 292° |
| 2026-04-30 14:19 | 14.24943 | 121.85686 | 23949 ft | 402 kts | 292° |
| 2026-04-30 14:19 | 14.26059 | 121.83059 | 23950 ft | 402 kts | 292° |
| 2026-04-30 14:20 | 14.27187 | 121.80411 | 23951 ft | 401 kts | 292° |
| 2026-04-30 14:20 | 14.28304 | 121.77795 | 23952 ft | 401 kts | 293° |
| 2026-04-30 14:20 | 14.30539 | 121.72568 | 23061 ft | 403 kts | 293° |
| 2026-04-30 14:21 | 14.31686 | 121.69885 | 22168 ft | 410 kts | 293° |
| 2026-04-30 14:21 | 14.32822 | 121.67230 | 21517 ft | 411 kts | 293° |
| 2026-04-30 14:21 | 14.35114 | 121.61875 | 20407 ft | 406 kts | 294° |
| 2026-04-30 14:22 | 14.36258 | 121.59203 | 19898 ft | 403 kts | 294° |
| 2026-04-30 14:22 | 14.38490 | 121.53983 | 18922 ft | 395 kts | 294° |
| 2026-04-30 14:22 | 14.39585 | 121.51423 | 18442 ft | 392 kts | 294° |
| 2026-04-30 14:23 | 14.41765 | 121.46320 | 17516 ft | 384 kts | 294° |
| 2026-04-30 14:23 | 14.43880 | 121.41364 | 16751 ft | 372 kts | 294° |
| 2026-04-30 14:24 | 14.45923 | 121.36577 | 16052 ft | 359 kts | 294° |
| 2026-04-30 14:24 | 14.46917 | 121.34246 | 15837 ft | 349 kts | 294° |
| 2026-04-30 14:25 | 14.48841 | 121.29668 | 15603 ft | 346 kts | 290° |
| 2026-04-30 14:25 | 14.48508 | 121.24961 | 14870 ft | 337 kts | 239° |
| 2026-04-30 14:26 | 14.45900 | 121.20959 | 14166 ft | 336 kts | 235° |
| 2026-04-30 14:26 | 14.44612 | 121.18944 | 13808 ft | 335 kts | 236° |
| 2026-04-30 14:26 | 14.42193 | 121.14869 | 13133 ft | 329 kts | 238° |
| 2026-04-30 14:27 | 14.41044 | 121.12848 | 12875 ft | 322 kts | 239° |
| 2026-04-30 14:27 | 14.39933 | 121.10869 | 12586 ft | 317 kts | 239° |
| 2026-04-30 14:27 | 14.38840 | 121.08912 | 12275 ft | 312 kts | 239° |
| 2026-04-30 14:28 | 14.36718 | 121.05096 | 11639 ft | 304 kts | 239° |
| 2026-04-30 14:28 | 14.35669 | 121.03208 | 11315 ft | 302 kts | 239° |
| 2026-04-30 14:28 | 14.34622 | 121.01324 | 10982 ft | 301 kts | 239° |
| 2026-04-30 14:28 | 14.33594 | 120.99472 | 10642 ft | 300 kts | 239° |
| 2026-04-30 14:29 | 14.31519 | 120.95737 | 9935 ft | 299 kts | 239° |
| 2026-04-30 14:29 | 14.29801 | 120.92646 | 9354 ft | 296 kts | 239° |
| 2026-04-30 14:30 | 14.26533 | 120.86769 | 8764 ft | 270 kts | 239° |
| 2026-04-30 14:31 | 14.24685 | 120.83441 | 8236 ft | 264 kts | 239° |
| 2026-04-30 14:31 | 14.22882 | 120.80193 | 7714 ft | 258 kts | 240° |
| 2026-04-30 14:31 | 14.22002 | 120.78595 | 7473 ft | 255 kts | 243° |
| 2026-04-30 14:32 | 14.22212 | 120.75281 | 6919 ft | 237 kts | 318° |
| 2026-04-30 14:32 | 14.23544 | 120.74362 | 6694 ft | 226 kts | 338° |
| 2026-04-30 14:32 | 14.24970 | 120.73640 | 6463 ft | 226 kts | 337° |
| 2026-04-30 14:33 | 14.26356 | 120.72905 | 6233 ft | 224 kts | 336° |
| 2026-04-30 14:33 | 14.29055 | 120.71381 | 5778 ft | 218 kts | 334° |
| 2026-04-30 14:33 | 14.30388 | 120.70609 | 5544 ft | 215 kts | 335° |
| 2026-04-30 14:34 | 14.31771 | 120.70170 | 5262 ft | 207 kts | 6° |
| 2026-04-30 14:34 | 14.33123 | 120.70576 | 5019 ft | 199 kts | 36° |
| 2026-04-30 14:34 | 14.34082 | 120.71517 | 4956 ft | 190 kts | 58° |
| 2026-04-30 14:34 | 14.34453 | 120.72353 | 4904 ft | 190 kts | 76° |
| 2026-04-30 14:35 | 14.33814 | 120.74911 | 4663 ft | 197 kts | 132° |
| 2026-04-30 14:35 | 14.32187 | 120.75764 | 4587 ft | 204 kts | 172° |
| 2026-04-30 14:35 | 14.30753 | 120.75607 | 4591 ft | 210 kts | 192° |
| 2026-04-30 14:36 | 14.29426 | 120.74947 | 4558 ft | 213 kts | 223° |
| 2026-04-30 14:36 | 14.28574 | 120.73712 | 4573 ft | 214 kts | 242° |
| 2026-04-30 14:36 | 14.27890 | 120.72348 | 4565 ft | 216 kts | 243° |
| 2026-04-30 14:36 | 14.27202 | 120.70964 | 4557 ft | 215 kts | 243° |
| 2026-04-30 14:37 | 14.26495 | 120.69591 | 4557 ft | 216 kts | 242° |
| 2026-04-30 14:37 | 14.25822 | 120.68229 | 4547 ft | 216 kts | 253° |
| 2026-04-30 14:37 | 14.25816 | 120.66727 | 4528 ft | 206 kts | 294° |
| 2026-04-30 14:37 | 14.26389 | 120.65378 | 4550 ft | 210 kts | 292° |
| 2026-04-30 14:38 | 14.26887 | 120.63949 | 4551 ft | 210 kts | 302° |
| 2026-04-30 14:38 | 14.27914 | 120.62971 | 4501 ft | 196 kts | 348° |
| 2026-04-30 14:38 | 14.29232 | 120.62928 | 4524 ft | 191 kts | 17° |
| 2026-04-30 14:38 | 14.30363 | 120.63576 | 4507 ft | 186 kts | 51° |
| 2026-04-30 14:39 | 14.30969 | 120.64759 | 4542 ft | 189 kts | 69° |
| 2026-04-30 14:39 | 14.31444 | 120.66046 | 4881 ft | 194 kts | 69° |
| 2026-04-30 14:39 | 14.31932 | 120.67339 | 4877 ft | 191 kts | 68° |
| 2026-04-30 14:40 | 14.32999 | 120.69825 | 4646 ft | 189 kts | 62° |
| 2026-04-30 14:40 | 14.33634 | 120.70999 | 4488 ft | 189 kts | 60° |
| 2026-04-30 14:40 | 14.34299 | 120.72179 | 4287 ft | 188 kts | 60° |
| 2026-04-30 14:40 | 14.34960 | 120.73341 | 4066 ft | 188 kts | 60° |
| 2026-04-30 14:41 | 14.35623 | 120.74510 | 3850 ft | 192 kts | 60° |
| 2026-04-30 14:41 | 14.36296 | 120.75707 | 3605 ft | 193 kts | 60° |
| 2026-04-30 14:41 | 14.36969 | 120.76910 | 3374 ft | 192 kts | 61° |
| 2026-04-30 14:41 | 14.37632 | 120.78102 | 3151 ft | 193 kts | 61° |
| 2026-04-30 14:42 | 14.38299 | 120.79303 | 3010 ft | 192 kts | 61° |
| 2026-04-30 14:42 | 14.38963 | 120.80499 | 3009 ft | 192 kts | 61° |
| 2026-04-30 14:42 | 14.39622 | 120.81690 | 2997 ft | 192 kts | 61° |
| 2026-04-30 14:42 | 14.40285 | 120.82887 | 2992 ft | 192 kts | 61° |
| 2026-04-30 14:43 | 14.40947 | 120.84083 | 2993 ft | 191 kts | 61° |
| 2026-04-30 14:43 | 14.41603 | 120.85267 | 3143 ft | 185 kts | 61° |
| 2026-04-30 14:43 | 14.42231 | 120.86402 | 2941 ft | 178 kts | 61° |
| 2026-04-30 14:43 | 14.42833 | 120.87488 | 2717 ft | 173 kts | 61° |
| 2026-04-30 14:44 | 14.43419 | 120.88545 | 2493 ft | 168 kts | 60° |
| 2026-04-30 14:44 | 14.43986 | 120.89568 | 2274 ft | 157 kts | 61° |
| 2026-04-30 14:44 | 14.44504 | 120.90501 | 2069 ft | 145 kts | 61° |
| 2026-04-30 14:44 | 14.44993 | 120.91382 | 1878 ft | 137 kts | 61° |
| 2026-04-30 14:45 | 14.45467 | 120.92236 | 1745 ft | 137 kts | 61° |
| 2026-04-30 14:45 | 14.45943 | 120.93094 | 1569 ft | 137 kts | 61° |
| 2026-04-30 14:45 | 14.46415 | 120.93947 | 1402 ft | 136 kts | 60° |
| 2026-04-30 14:45 | 14.46877 | 120.94777 | 1212 ft | 132 kts | 61° |
| 2026-04-30 14:46 | 14.47335 | 120.95600 | 1034 ft | 132 kts | 62° |
| 2026-04-30 14:46 | 14.47795 | 120.96426 | 864 ft | 131 kts | 62° |
| 2026-04-30 14:46 | 14.48248 | 120.97236 | 694 ft | 131 kts | 61° |
| 2026-04-30 14:46 | 14.48554 | 120.97783 | 581 ft | 131 kts | 62° |
| 2026-04-30 14:47 | 14.49147 | 120.98869 | 367 ft | 130 kts | 63° |
| 2026-04-30 14:47 | 14.49601 | 120.99680 | 209 ft | 130 kts | 63° |
| 2026-04-30 14:47 | 14.50049 | 121.00488 | 90 ft | 126 kts | 63° |
| 2026-04-30 14:47 | 14.50422 | 121.01169 | 82 ft | 86 kts | 59° |
| 2026-04-30 14:48 | 14.50644 | 121.01563 | 82 ft | 49 kts | 59° |
| 2026-04-30 14:48 | 14.50783 | 121.01731 | 82 ft | 18 kts | 40° |
| 2026-04-30 14:48 | 14.50861 | 121.01783 | 82 ft | 0 kts | 12° |
| 2026-04-30 14:49 | 14.50864 | 121.01783 | 82 ft | 1 kts | 12° |
| 2026-04-30 14:49 | 14.50879 | 121.01784 | 82 ft | 3 kts | 357° |
| 2026-04-30 14:50 | 14.50936 | 121.01800 | 82 ft | 5 kts | 52° |
| 2026-04-30 14:50 | 14.50960 | 121.01839 | 82 ft | 7 kts | 59° |
| 2026-04-30 14:51 | 14.51039 | 121.01912 | 82 ft | 9 kts | 341° |
| 2026-04-30 14:51 | 14.51090 | 121.01863 | 82 ft | 10 kts | 314° |
| 2026-04-30 14:51 | 14.51211 | 121.01739 | 82 ft | 13 kts | 315° |
| 2026-04-30 14:52 | 14.51238 | 121.01714 | 82 ft | 2 kts | 316° |
| 2026-04-30 14:52 | 14.51293 | 121.01653 | 82 ft | 6 kts | 314° |
| 2026-04-30 14:52 | 14.51345 | 121.01600 | 82 ft | 12 kts | 315° |
| 2026-04-30 14:53 | 14.51462 | 121.01479 | 82 ft | 11 kts | 314° |
| 2026-04-30 14:53 | 14.51520 | 121.01419 | 82 ft | 11 kts | 316° |
| 2026-04-30 14:54 | 14.51634 | 121.01302 | 82 ft | 11 kts | 315° |
| 2026-04-30 14:54 | 14.51746 | 121.01186 | 82 ft | 11 kts | 314° |
| 2026-04-30 14:55 | 14.51862 | 121.01065 | 82 ft | 7 kts | 315° |
| 2026-04-30 14:55 | 14.51906 | 121.01051 | 82 ft | 7 kts | 18° |
| 2026-04-30 14:55 | 14.51952 | 121.01138 | 82 ft | 7 kts | 48° |
| 2026-04-30 14:56 | 14.51985 | 121.01173 | 82 ft | 2 kts | 45° |
| 2026-04-30 14:56 | 14.51991 | 121.01179 | 82 ft | 0 kts | 45° |